Terminal Aerodrome Forecast
Issued by NWS Glasgow, MT

Home | Current Version | Previous Version | Text Only | Print | Product List | Glossary On
Versions: 1 2 3 4 5 6 7 8 9 10 11 12 13 14
000
FTUS45 KGGW 190500
TAFGGW
TAF
KGGW 190525Z 1906/2006 28017KT P6SM BKN050
     FM190800 27011KT P6SM SCT100
     FM191800 28015G25KT P6SM SKC
     FM200100 12005KT P6SM SKC=

USA.gov is the U.S. government's official web portal to all federal, state and local government web resources and services.